Time;durP1;ratioP1;P1;durP2;ratioP2;P2;SDS_P1;SDS_P2;PMS_P1;PMS_P2;Temp;Humidity;BMP_temperature;BMP_pressure;BME280_temperature;BME280_humidity;BME280_pressure;Samples;Min_cycle;Max_cycle;Signal;HPM_P1;HPM_P2
2021/10/26 00:00:44;;;;;;;;;;;;;;;11.22;81.30;99869.47;5072608;28;19920;-73
2021/10/26 00:03:10;;;;;;;;;;;;;;;11.19;81.85;99881.03;5073023;28;19950;-73
2021/10/26 00:05:35;;;;;;;;;;;;;;;11.17;82.19;99872.34;5073548;28;19916;-72
2021/10/26 00:08:00;;;;;;;;;;;;;;;11.17;82.53;99872.34;5072792;28;19924;-73
2021/10/26 00:10:25;;;;;;;;;;;;;;;11.17;82.10;99872.34;5072988;28;19921;-72
2021/10/26 00:12:51;;;;;;;;;;;;;;;11.16;82.26;99876.78;5055742;28;19920;-73
2021/10/26 00:15:16;;;;;;;;;;;;;;;11.18;82.43;99868.78;5054114;28;19923;-72
2021/10/26 00:17:41;;;;;;;;;;;;;;;11.17;82.15;99872.34;5073057;28;19924;-73
2021/10/26 00:20:07;;;;;;;;;;;;;;;11.16;82.17;99875.94;5073146;28;20457;-73
2021/10/26 00:22:32;;;;;;;;;;;;;;;11.14;82.30;99873.34;5074677;28;19920;-73
2021/10/26 00:24:57;;;;;;;;;;;;;;;11.15;82.14;99882.16;5074360;28;20027;-72
2021/10/26 00:27:23;;;;;;;;;;;;;;;11.15;82.29;99879.50;5054035;28;20367;-72
2021/10/26 00:29:48;;;;;;;;;;;;;;;11.18;82.33;99874.06;5073008;28;20160;-73
2021/10/26 00:32:14;;;;;;;;;;;;;;;11.21;82.51;99884.47;5072312;28;19920;-73
2021/10/26 00:34:39;;;;;;;;;;;;;;;11.18;82.28;99877.56;5072610;28;19974;-72
2021/10/26 00:37:04;;;;;;;;;;;;;;;11.17;82.31;99883.78;5073090;28;20038;-72
2021/10/26 00:39:29;;;;;;;;;;;;;;;11.18;82.49;99879.34;5073144;28;19920;-72
2021/10/26 00:41:56;;;;;;;;;;;;;;;11.22;82.51;99890.59;5072931;28;19966;-72
2021/10/26 00:44:21;;;;;;;;;;;;;;;11.22;82.20;99880.88;5073009;28;20398;-72
2021/10/26 00:46:47;;;;;;;;;;;;;;;11.22;82.21;99885.31;5072768;28;19916;-72
2021/10/26 00:49:12;;;;;;;;;;;;;;;11.22;82.33;99877.41;5072179;28;19962;-72
2021/10/26 00:51:38;;;;;;;;;;;;;;;11.22;82.31;99882.69;5071390;28;20376;-72
2021/10/26 00:54:04;;;;;;;;;;;;;;;11.18;82.03;99880.19;5069135;28;20296;-73
2021/10/26 00:56:31;;;;;;;;;;;;;;;11.19;82.38;99886.31;5055104;28;19917;-73
2021/10/26 00:58:57;;;;;;;;;;;;;;;11.18;82.10;99879.34;5053777;28;19986;-73
2021/10/26 01:01:23;;;;;;;;;;;;;;;11.17;82.44;99880.25;5045147;28;20288;-73
2021/10/26 01:03:48;;;;;;;;;;;;;;;11.16;82.27;99881.22;5074278;28;19973;-73
2021/10/26 01:06:13;;;;;;;;;;;;;;;11.14;82.52;99888.34;5072165;28;20450;-73
2021/10/26 01:08:40;;;;;;;;;;;;;;;11.15;82.25;99888.28;5071819;28;19958;-73
2021/10/26 01:11:05;;;;;;;;;;;;;;;11.17;82.17;99888.19;5071144;28;19920;-74
2021/10/26 01:13:30;;;;;;;;;;;;;;;11.18;82.26;99888.13;5052945;28;19923;-73
2021/10/26 01:15:57;;;;;;;;;;;;;;;11.18;82.39;99895.19;5053416;28;19920;-75
2021/10/26 01:18:23;;;;;;;;;;;;;;;11.21;82.40;99897.66;5069260;28;20007;-73
2021/10/26 01:20:49;;;;;;;;;;;;;;;11.24;82.37;99897.50;5051235;28;19920;-74
2021/10/26 01:23:14;;;;;;;;;;;;;;;11.26;82.23;99900.91;5051196;28;19923;-73
2021/10/26 01:25:40;;;;;;;;;;;;;;;11.26;82.22;99898.28;5043909;28;19995;-73
2021/10/26 01:28:05;;;;;;;;;;;;;;;11.27;82.21;99899.13;5071097;28;20013;-73
2021/10/26 01:30:33;;;;;;;;;;;;;;;11.23;81.93;99898.44;5052478;28;19924;-73
2021/10/26 01:32:59;;;;;;;;;;;;;;;11.27;82.08;99897.38;5053407;28;20304;-73
2021/10/26 01:35:24;;;;;;;;;;;;;;;11.30;82.11;99899.84;5071276;28;19916;-72
2021/10/26 01:37:49;;;;;;;;;;;;;;;11.31;81.77;99901.53;5053405;28;20434;-73
2021/10/26 01:40:15;;;;;;;;;;;;;;;11.32;81.54;99897.09;5071103;28;20372;-73
2021/10/26 01:42:41;;;;;;;;;;;;;;;11.32;81.71;99902.38;5071058;28;19920;-73
2021/10/26 01:45:07;;;;;;;;;;;;;;;11.31;81.66;99900.69;5042534;28;19917;-72
2021/10/26 01:47:32;;;;;;;;;;;;;;;11.35;81.87;99915.47;5070410;28;19924;-72
2021/10/26 01:49:57;;;;;;;;;;;;;;;11.33;81.56;99910.25;5070754;28;19924;-72
2021/10/26 01:52:23;;;;;;;;;;;;;;;11.32;81.41;99913.81;5070311;28;19924;-73
2021/10/26 01:54:48;;;;;;;;;;;;;;;11.35;81.85;99910.19;5071368;28;19924;-73
2021/10/26 01:57:18;;;;;;;;;;;;;;;11.37;81.79;99906.53;5070786;28;20274;-74
2021/10/26 01:59:44;;;;;;;;;;;;;;;11.42;81.53;99908.06;5070549;28;20777;-73
2021/10/26 02:02:09;;;;;;;;;;;;;;;11.43;81.33;99910.63;5070237;28;20003;-73
2021/10/26 02:04:34;;;;;;;;;;;;;;;11.43;81.07;99912.44;5070602;28;19920;-73
2021/10/26 02:06:59;;;;;;;;;;;;;;;11.42;81.53;99913.34;5052708;28;19917;-73
2021/10/26 02:09:25;;;;;;;;;;;;;;;11.41;81.90;99909.84;5070659;28;20416;-73
2021/10/26 02:11:50;;;;;;;;;;;;;;;11.38;81.68;99913.50;5070431;28;19951;-73
2021/10/26 02:14:16;;;;;;;;;;;;;;;11.35;81.81;99916.31;5079905;28;19948;-72
2021/10/26 02:16:42;;;;;;;;;;;;;;;11.36;82.16;99907.44;5086509;28;20362;-72
2021/10/26 02:19:07;;;;;;;;;;;;;;;11.35;81.81;99903.09;5073572;28;20453;-73
2021/10/26 02:21:32;;;;;;;;;;;;;;;11.35;82.02;99896.97;5072221;28;19964;-72
2021/10/26 02:23:57;;;;;;;;;;;;;;;11.34;81.48;99898.75;5071746;28;19917;-73
2021/10/26 02:26:23;;;;;;;;;;;;;;;11.34;82.13;99897.88;5070954;28;19927;-72
2021/10/26 02:28:48;;;;;;;;;;;;;;;11.34;82.18;99898.75;5070659;28;19923;-72
2021/10/26 02:31:13;;;;;;;;;;;;;;;11.32;82.15;99903.28;5069517;28;19927;-74
2021/10/26 02:33:39;;;;;;;;;;;;;;;11.31;81.67;99903.34;5052561;28;19916;-72
2021/10/26 02:36:04;;;;;;;;;;;;;;;11.30;82.25;99901.63;5070228;28;19916;-73
2021/10/26 02:38:29;;;;;;;;;;;;;;;11.29;82.26;99899.91;5052532;28;20395;-72
2021/10/26 02:40:55;;;;;;;;;;;;;;;11.25;82.08;99901.88;5051430;28;20360;-73
2021/10/26 02:43:20;;;;;;;;;;;;;;;11.21;82.25;99900.31;5052165;28;20394;-72
2021/10/26 02:45:45;;;;;;;;;;;;;;;11.20;82.31;99903.88;5052138;28;19920;-73
2021/10/26 02:48:10;;;;;;;;;;;;;;;11.16;82.90;99889.13;5059397;28;19923;-71
2021/10/26 02:50:38;;;;;;;;;;;;;;;11.14;82.45;99898.91;5068705;28;20608;-71
2021/10/26 02:53:04;;;;;;;;;;;;;;;11.14;82.71;99897.09;5069663;28;19947;-71
2021/10/26 02:55:29;;;;;;;;;;;;;;;11.14;82.45;99899.75;5069647;28;20332;-72
2021/10/26 02:57:54;;;;;;;;;;;;;;;11.13;82.60;99902.47;5051716;28;19922;-72
2021/10/26 03:00:20;;;;;;;;;;;;;;;11.15;82.96;99908.53;5069605;28;19920;-72
2021/10/26 03:02:45;;;;;;;;;;;;;;;11.16;82.79;99905.81;5070063;28;19916;-71
2021/10/26 03:05:10;;;;;;;;;;;;;;;11.14;82.83;99909.44;5068996;28;19921;-72
2021/10/26 03:07:42;;;;;;;;;;;;;;;11.12;82.32;99901.63;5051857;28;20019;-72
2021/10/26 03:10:08;;;;;;;;;;;;;;;11.10;82.51;99900.84;5068457;28;19916;-72
2021/10/26 03:12:34;;;;;;;;;;;;;;;11.11;82.55;99905.19;5069135;28;19926;-71
2021/10/26 03:14:59;;;;;;;;;;;;;;;11.09;82.34;99909.66;5069481;28;19962;-72
2021/10/26 03:17:25;;;;;;;;;;;;;;;11.09;82.56;99907.03;5041890;28;19917;-73
2021/10/26 03:19:50;;;;;;;;;;;;;;;11.09;82.53;99907.03;5031532;28;19921;-73
2021/10/26 03:22:15;;;;;;;;;;;;;;;11.06;82.35;99898.44;5048163;28;19979;-72
2021/10/26 03:24:41;;;;;;;;;;;;;;;11.04;82.67;99909.03;5048625;28;20320;-73
2021/10/26 03:27:06;;;;;;;;;;;;;;;11.03;82.37;99907.34;5052839;28;19916;-71
2021/10/26 03:29:31;;;;;;;;;;;;;;;11.00;82.25;99906.63;5051437;28;19927;-72
2021/10/26 03:31:56;;;;;;;;;;;;;;;11.00;82.46;99909.28;5068674;28;20407;-72
2021/10/26 03:34:22;;;;;;;;;;;;;;;11.00;82.66;99906.63;5051157;28;20398;-74
2021/10/26 03:36:47;;;;;;;;;;;;;;;10.98;82.66;99904.09;5068995;28;20012;-73
2021/10/26 03:39:13;;;;;;;;;;;;;;;10.98;82.42;99914.63;5068945;28;19924;-73
2021/10/26 03:41:38;;;;;;;;;;;;;;;10.96;82.43;99921.78;5067950;28;20400;-74
2021/10/26 03:44:03;;;;;;;;;;;;;;;10.94;82.73;99916.56;5051046;28;19923;-73
2021/10/26 03:46:29;;;;;;;;;;;;;;;10.93;82.86;99925.41;5068748;28;20368;-74
2021/10/26 03:48:54;;;;;;;;;;;;;;;10.95;83.02;99917.41;5068465;28;19916;-74
2021/10/26 03:51:19;;;;;;;;;;;;;;;10.96;82.74;99925.25;5068316;28;19932;-73
2021/10/26 03:53:45;;;;;;;;;;;;;;;10.95;83.08;99926.19;5068780;28;19924;-74
2021/10/26 03:56:10;;;;;;;;;;;;;;;10.96;82.77;99927.88;5068319;28;19923;-73
2021/10/26 03:58:38;;;;;;;;;;;;;;;10.98;82.58;99932.22;5069467;28;19917;-73
2021/10/26 04:01:04;;;;;;;;;;;;;;;10.99;82.67;99928.69;5067728;28;20326;-73
2021/10/26 04:03:29;;;;;;;;;;;;;;;10.94;83.00;99927.09;5069078;28;19974;-72
2021/10/26 04:10:51;;;;;;;;;;;;;;;10.96;82.82;99922.63;5066431;28;20011;-72
2021/10/26 04:13:18;;;;;;;;;;;;;;;11.00;82.71;99933.88;5069308;28;19923;-72
2021/10/26 04:15:43;;;;;;;;;;;;;;;11.00;82.78;99935.66;5050847;28;20388;-72
2021/10/26 04:18:08;;;;;;;;;;;;;;;10.99;82.42;99932.16;5069075;28;19946;-72
2021/10/26 04:20:33;;;;;;;;;;;;;;;10.98;82.77;99938.38;5068428;28;20000;-72
2021/10/26 04:22:59;;;;;;;;;;;;;;;10.97;82.54;99944.56;5068377;28;20016;-72
2021/10/26 04:25:24;;;;;;;;;;;;;;;10.97;82.40;99941.94;5069018;28;20541;-72
2021/10/26 04:27:49;;;;;;;;;;;;;;;10.95;82.59;99941.16;5051087;28;20696;-72
2021/10/26 04:30:31;;;;;;;;;;;;;;;10.96;82.31;99948.16;5033539;28;20075;-74
2021/10/26 04:32:57;;;;;;;;;;;;;;;10.93;82.26;99943.88;5069234;28;19921;-74
2021/10/26 04:35:22;;;;;;;;;;;;;;;10.94;82.38;99944.72;5051800;28;20368;-74
2021/10/26 04:37:47;;;;;;;;;;;;;;;10.92;82.26;99947.44;5069973;28;20290;-73
2021/10/26 04:40:12;;;;;;;;;;;;;;;10.92;82.62;99951.84;5073636;28;20368;-73
2021/10/26 04:42:38;;;;;;;;;;;;;;;10.90;82.37;99949.31;5055994;28;19916;-73
2021/10/26 04:45:04;;;;;;;;;;;;;;;10.93;82.42;99951.78;5072697;28;19923;-73
2021/10/26 04:47:29;;;;;;;;;;;;;;;10.96;81.95;99950.78;5054124;28;19916;-72
2021/10/26 04:49:55;;;;;;;;;;;;;;;10.94;82.09;99953.47;5072756;28;19916;-73
2021/10/26 04:52:20;;;;;;;;;;;;;;;10.94;82.01;99956.13;5054509;28;19921;-73
2021/10/26 04:54:46;;;;;;;;;;;;;;;10.95;82.09;99951.69;5072228;28;19916;-73
2021/10/26 04:57:11;;;;;;;;;;;;;;;10.94;82.28;99960.56;5072215;28;20011;-73
2021/10/26 04:59:36;;;;;;;;;;;;;;;10.94;82.21;99961.41;5072272;28;19916;-74
2021/10/26 05:02:01;;;;;;;;;;;;;;;10.97;82.05;99952.47;5062199;28;19921;-73
2021/10/26 05:04:27;;;;;;;;;;;;;;;10.98;82.18;99950.69;5064448;28;19921;-73
2021/10/26 05:06:53;;;;;;;;;;;;;;;11.02;81.92;99965.44;5082626;28;19920;-74
2021/10/26 05:09:19;;;;;;;;;;;;;;;11.03;82.04;99968.03;5085216;28;20787;-74
2021/10/26 05:11:44;;;;;;;;;;;;;;;11.04;81.96;99953.91;5065661;28;19928;-73
2021/10/26 05:14:09;;;;;;;;;;;;;;;11.06;81.70;99959.13;5077628;28;19920;-73
2021/10/26 05:16:35;;;;;;;;;;;;;;;11.08;81.23;99966.03;5077171;28;19928;-73
2021/10/26 05:19:03;;;;;;;;;;;;;;;11.13;81.75;99968.44;5075028;28;19923;-72
2021/10/26 05:21:28;;;;;;;;;;;;;;;11.14;81.54;99967.50;5054780;28;20648;-72
2021/10/26 05:23:54;;;;;;;;;;;;;;;11.15;81.53;99982.41;5072546;28;19967;-73
2021/10/26 05:26:19;;;;;;;;;;;;;;;11.15;81.27;99979.78;5063529;28;19921;-73
2021/10/26 05:28:45;;;;;;;;;;;;;;;11.17;81.46;99988.44;5054589;28;19928;-71
2021/10/26 05:31:11;;;;;;;;;;;;;;;11.20;81.61;99990.09;5070628;28;19935;-72
2021/10/26 05:33:39;;;;;;;;;;;;;;;11.21;81.20;99987.38;5071872;28;20029;-73
2021/10/26 05:36:05;;;;;;;;;;;;;;;11.21;81.11;99991.81;5053673;28;19921;-74
2021/10/26 05:38:31;;;;;;;;;;;;;;;11.22;81.30;99985.59;5052328;28;19916;-73
2021/10/26 05:40:56;;;;;;;;;;;;;;;11.21;80.98;99987.38;5052476;28;20464;-72
2021/10/26 05:43:22;;;;;;;;;;;;;;;11.23;81.03;99987.31;5071440;28;19923;-73
2021/10/26 05:45:47;;;;;;;;;;;;;;;11.25;81.23;99988.06;5070590;28;19948;-73
2021/10/26 05:48:12;;;;;;;;;;;;;;;11.25;81.03;99977.53;5072375;28;19923;-72
2021/10/26 05:50:38;;;;;;;;;;;;;;;11.25;81.13;99983.69;5053732;28;20386;-73
2021/10/26 05:53:03;;;;;;;;;;;;;;;11.25;81.04;99977.53;5054877;28;19976;-72
2021/10/26 05:55:28;;;;;;;;;;;;;;;11.23;80.39;99977.63;5053847;28;19935;-73
2021/10/26 05:57:53;;;;;;;;;;;;;;;11.22;81.04;99983.81;5071488;28;19920;-74
2021/10/26 06:00:19;;;;;;;;;;;;;;;11.27;80.65;99981.81;5070110;28;19977;-74
2021/10/26 06:02:44;;;;;;;;;;;;;;;11.28;81.10;99990.59;5070675;28;19916;-73
2021/10/26 06:05:11;;;;;;;;;;;;;;;11.24;80.85;99992.50;5070553;28;19920;-75
2021/10/26 06:07:36;;;;;;;;;;;;;;;11.25;80.88;99991.59;5070241;28;19986;-75
2021/10/26 06:10:02;;;;;;;;;;;;;;;11.28;80.78;99988.81;5070583;28;20418;-75
2021/10/26 06:12:30;;;;;;;;;;;;;;;11.26;80.51;99990.66;5070703;28;19916;-72
2021/10/26 06:14:55;;;;;;;;;;;;;;;11.29;80.51;99997.56;5052509;28;19916;-69
2021/10/26 06:17:21;;;;;;;;;;;;;;;11.28;80.48;99991.44;5052674;28;19939;-69
2021/10/26 06:19:46;;;;;;;;;;;;;;;11.26;80.43;99997.72;5052053;28;20006;-71
2021/10/26 06:22:11;;;;;;;;;;;;;;;11.25;80.64;99996.00;5069613;28;20277;-70
2021/10/26 06:24:36;;;;;;;;;;;;;;;11.24;80.69;100000.41;5070198;28;19928;-71
2021/10/26 06:27:02;;;;;;;;;;;;;;;11.25;80.93;100014.47;5071092;28;20003;-71
2021/10/26 06:29:27;;;;;;;;;;;;;;;11.24;80.62;100018.91;5070477;28;19917;-71
2021/10/26 06:31:52;;;;;;;;;;;;;;;11.21;80.60;100021.69;5070024;28;19924;-72
2021/10/26 06:34:18;;;;;;;;;;;;;;;11.22;80.75;100035.72;5070477;28;19959;-73
2021/10/26 06:36:43;;;;;;;;;;;;;;;11.24;80.64;100037.38;5052950;28;19935;-71
2021/10/26 06:39:08;;;;;;;;;;;;;;;11.25;80.94;100046.13;5070938;28;20333;-70
2021/10/26 06:41:34;;;;;;;;;;;;;;;11.25;80.60;100044.38;5069544;28;19966;-70
2021/10/26 06:43:59;;;;;;;;;;;;;;;11.25;80.47;100043.50;5070766;28;19916;-71
2021/10/26 06:46:24;;;;;;;;;;;;;;;11.21;80.38;100050.72;5056811;28;19924;-72
2021/10/26 06:48:49;;;;;;;;;;;;;;;11.20;80.22;100046.38;5041308;28;20066;-70
2021/10/26 06:51:15;;;;;;;;;;;;;;;11.22;79.93;100057.69;5060747;28;19931;-71
2021/10/26 06:53:40;;;;;;;;;;;;;;;11.23;80.14;100058.56;5063215;28;19970;-72
2021/10/26 06:56:12;;;;;;;;;;;;;;;11.25;80.11;100069.88;5063588;28;19935;-73
2021/10/26 06:58:37;;;;;;;;;;;;;;;11.27;80.00;100074.19;5062894;28;19928;-72
2021/10/26 07:01:07;;;;;;;;;;;;;;;11.30;80.21;100086.38;5062563;28;19928;-72
2021/10/26 07:03:32;;;;;;;;;;;;;;;11.32;80.06;100085.38;5063522;28;19928;-72
2021/10/26 07:05:57;;;;;;;;;;;;;;;11.34;79.57;100083.50;5061685;28;19927;-75
2021/10/26 07:08:22;;;;;;;;;;;;;;;11.34;79.67;100086.16;5044222;28;19927;-73
2021/10/26 07:10:48;;;;;;;;;;;;;;;11.38;79.53;100085.09;5044278;28;19924;-73
2021/10/26 07:13:14;;;;;;;;;;;;;;;11.41;79.82;100094.63;5044178;28;20004;-72
2021/10/26 07:15:39;;;;;;;;;;;;;;;11.41;78.97;100096.44;5043878;28;20391;-75
2021/10/26 07:18:04;;;;;;;;;;;;;;;11.44;79.53;100098.91;5025630;28;19921;-74
2021/10/26 07:20:30;;;;;;;;;;;;;;;11.69;80.15;100096.81;5041316;28;19975;-55
2021/10/26 07:22:55;;;;;;;;;;;;;;;12.24;77.66;100096.72;5044001;28;19921;-55
2021/10/26 07:25:21;;;;;;;;;;;;;;;12.49;76.09;100098.09;5043307;28;20008;-57
2021/10/26 07:27:48;;;;;;;;;;;;;;;12.51;74.76;100095.38;5042952;28;19932;-59
2021/10/26 07:30:13;;;;;;;;;;;;;;;12.49;75.56;100097.25;5057938;28;20524;-58
2021/10/26 07:32:40;;;;;;;;;;;;;;;12.51;74.39;100090.09;5062277;28;19935;-73
2021/10/26 07:35:06;;;;;;;;;;;;;;;12.39;74.71;100102.16;5063880;28;19916;-73
2021/10/26 07:37:49;;;;;;;;;;;;;;;12.26;74.92;100094.00;5062804;28;19998;-74
2021/10/26 07:40:15;;;;;;;;;;;;;;;12.19;75.73;100104.03;5047758;28;20589;-74
2021/10/26 07:42:40;;;;;;;;;;;;;;;12.20;75.40;100102.25;5044815;28;19920;-72
2021/10/26 07:45:06;;;;;;;;;;;;;;;12.14;75.60;100102.56;5063527;28;19923;-74
2021/10/26 07:47:33;;;;;;;;;;;;;;;12.17;76.01;100102.41;5062801;28;19920;-74
2021/10/26 07:49:59;;;;;;;;;;;;;;;12.12;75.76;100102.63;5063303;28;19920;-72
2021/10/26 07:52:24;;;;;;;;;;;;;;;12.15;74.78;100104.25;5064024;28;19974;-75
2021/10/26 07:54:52;;;;;;;;;;;;;;;12.08;74.94;100102.84;5063403;28;19924;-74
2021/10/26 07:57:19;;;;;;;;;;;;;;;12.08;75.37;100113.44;5033597;28;19920;-74
2021/10/26 07:59:45;;;;;;;;;;;;;;;12.09;75.05;100108.06;5051911;28;19928;-75
2021/10/26 08:02:10;;;;;;;;;;;;;;;12.12;75.19;100099.13;5065313;28;20142;-73
2021/10/26 08:04:39;;;;;;;;;;;;;;;12.16;74.66;100096.28;5063382;28;20023;-73
2021/10/26 08:07:05;;;;;;;;;;;;;;;12.18;74.37;100110.25;5063798;28;20414;-73
2021/10/26 08:09:30;;;;;;;;;;;;;;;12.18;74.34;100110.25;5064187;28;19960;-74
2021/10/26 08:11:56;;;;;;;;;;;;;;;12.17;74.07;100105.88;5045401;28;19963;-73
2021/10/26 08:14:21;;;;;;;;;;;;;;;12.23;74.31;100115.28;5066303;28;19920;-73
2021/10/26 08:16:47;;;;;;;;;;;;;;;12.24;73.92;100114.38;5067453;28;19960;-74
2021/10/26 08:19:12;;;;;;;;;;;;;;;12.23;74.10;100115.28;5048767;28;19924;-71
2021/10/26 08:21:39;;;;;;;;;;;;;;;12.25;73.67;100116.91;5066878;28;19978;-74
2021/10/26 08:24:04;;;;;;;;;;;;;;;12.29;73.82;100117.63;5066665;28;20035;-76
2021/10/26 08:26:57;;;;;;;;;;;;;;;12.32;74.14;100112.19;5066671;28;20011;-74
2021/10/26 08:29:30;;;;;;;;;;;;;;;12.40;73.75;100114.44;5057098;28;19924;-76
2021/10/26 08:37:38;;;;;;;;;;;;;;;12.72;72.32;100110.09;5050978;28;19940;-75
2021/10/26 08:40:04;;;;;;;;;;;;;;;12.84;71.65;100108.59;5048400;28;20480;-72
2021/10/26 08:42:30;;;;;;;;;;;;;;;12.93;72.18;100108.13;5049706;28;20407;-74
2021/10/26 08:44:55;;;;;;;;;;;;;;;13.17;71.47;100105.94;5049436;28;20019;-75
2021/10/26 08:47:21;;;;;;;;;;;;;;;13.74;69.11;100106.28;5066038;28;19920;-74
2021/10/26 08:49:49;;;;;;;;;;;;;;;14.16;67.28;100101.22;5066246;28;19926;-75
2021/10/26 08:52:14;;;;;;;;;;;;;;;14.69;64.62;100102.47;5065759;28;19925;-75
2021/10/26 08:54:40;;;;;;;;;;;;;;;15.43;61.89;100097.84;5066962;28;20610;-73
2021/10/26 08:57:05;;;;;;;;;;;;;;;15.91;60.21;100095.63;5047866;28;20432;-75
2021/10/26 08:59:31;;;;;;;;;;;;;;;15.89;60.13;100093.06;5052609;28;20395;-75
2021/10/26 09:01:59;;;;;;;;;;;;;;;15.61;60.85;100094.03;5045080;28;19948;-76
2021/10/26 09:04:31;;;;;;;;;;;;;;;15.92;59.62;100109.78;5045936;28;20447;-75
2021/10/26 09:06:59;;;;;;;;;;;;;;;17.00;55.93;100097.97;5026891;28;19925;-74
2021/10/26 09:09:26;;;;;;;;;;;;;;;17.83;53.76;100087.50;5027110;28;19920;-74
2021/10/26 09:17:26;;;;;;;;;;;;;;;18.64;51.34;100093.81;5045265;28;20363;-75
2021/10/26 09:19:51;;;;;;;;;;;;;;;19.25;49.70;100093.47;5045449;28;20432;-75
2021/10/26 09:22:17;;;;;;;;;;;;;;;19.57;48.57;100090.00;5045035;28;20114;-75
2021/10/26 09:24:54;;;;;;;;;;;;;;;19.62;48.08;100091.34;5043789;28;19931;-74
2021/10/26 09:27:21;;;;;;;;;;;;;;;18.84;49.43;100098.47;5028276;28;19927;-75
2021/10/26 09:29:50;;;;;;;;;;;;;;;18.98;48.92;100102.72;5047408;28;20764;-73
2021/10/26 09:32:20;;;;;;;;;;;;;;;18.86;49.83;100109.03;5064017;28;19932;-73
2021/10/26 09:34:59;;;;;;;;;;;;;;;18.15;51.32;100122.44;5064752;28;19920;-75
2021/10/26 09:37:25;;;;;;;;;;;;;;;17.54;53.00;100119.81;5065579;28;19933;-75
2021/10/26 09:39:50;;;;;;;;;;;;;;;17.04;54.51;100112.78;5065483;28;19927;-75
2021/10/26 09:42:16;;;;;;;;;;;;;;;17.78;52.36;100118.97;5065118;28;20669;-76
2021/10/26 09:44:45;;;;;;;;;;;;;;;18.21;51.17;100118.44;5065934;28;19921;-74
2021/10/26 09:47:24;;;;;;;;;;;;;;;19.01;49.79;100123.00;5065938;28;20327;-74
2021/10/26 09:49:54;;;;;;;;;;;;;;;18.58;50.38;100112.97;5048072;28;20353;-76
2021/10/26 09:52:25;;;;;;;;;;;;;;;17.71;52.20;100115.06;5066467;28;20027;-75
2021/10/26 09:55:02;;;;;;;;;;;;;;;17.51;52.35;100111.19;5049414;28;19924;-74
2021/10/26 09:57:33;;;;;;;;;;;;;;;17.68;51.70;100125.97;5067968;28;19920;-74
2021/10/26 09:59:59;;;;;;;;;;;;;;;17.50;51.20;100131.66;5067595;28;19922;-77
2021/10/26 10:02:25;;;;;;;;;;;;;;;17.02;53.07;100120.88;5070084;28;19916;-74
2021/10/26 10:04:51;;;;;;;;;;;;;;;17.25;52.14;100124.56;5064852;28;19959;-73
2021/10/26 10:07:26;;;;;;;;;;;;;;;17.60;50.91;100118.53;5065674;28;20011;-75
2021/10/26 10:10:11;;;;;;;;;;;;;;;17.73;50.75;100123.81;5047680;28;19989;-73
2021/10/26 10:12:40;;;;;;;;;;;;;;;17.72;50.51;100132.75;5054193;28;20423;-73
2021/10/26 10:15:06;;;;;;;;;;;;;;;17.79;50.74;100126.88;5061565;28;19920;-74
2021/10/26 10:17:33;;;;;;;;;;;;;;;17.77;50.49;100122.59;5041073;28;19995;-74
2021/10/26 10:19:59;;;;;;;;;;;;;;;17.72;50.50;100119.41;5069256;28;20001;-74
2021/10/26 10:22:26;;;;;;;;;;;;;;;17.68;50.97;100132.13;5068854;28;19952;-73
2021/10/26 10:24:56;;;;;;;;;;;;;;;17.50;51.54;100125.47;5049982;28;20017;-73
2021/10/26 10:27:22;;;;;;;;;;;;;;;17.48;51.52;100130.09;5068375;28;19921;-74
2021/10/26 10:29:48;;;;;;;;;;;;;;;17.34;52.15;100131.91;5069367;28;19936;-74
2021/10/26 10:32:13;;;;;;;;;;;;;;;17.19;52.02;100130.34;5069261;28;19943;-73
2021/10/26 10:34:38;;;;;;;;;;;;;;;16.99;52.68;100130.91;5070641;28;19927;-73
2021/10/26 10:37:04;;;;;;;;;;;;;;;16.83;53.31;100133.78;5069905;28;20079;-74
2021/10/26 10:39:33;;;;;;;;;;;;;;;16.69;54.50;100122.28;5052305;28;20345;-74
2021/10/26 10:42:13;;;;;;;;;;;;;;;16.52;54.93;100135.88;5069116;28;19917;-74
2021/10/26 10:44:40;;;;;;;;;;;;;;;16.40;55.27;100134.06;5050635;28;20412;-74
2021/10/26 10:47:09;;;;;;;;;;;;;;;16.25;55.32;100143.94;5067883;28;20323;-74
2021/10/26 10:49:35;;;;;;;;;;;;;;;15.94;55.55;100135.31;5046823;28;20342;-74
2021/10/26 10:52:15;;;;;;;;;;;;;;;15.92;56.10;100133.72;5051457;28;20015;-74
2021/10/26 10:54:48;;;;;;;;;;;;;;;15.80;57.21;100141.56;5052434;28;20015;-74
2021/10/26 10:57:21;;;;;;;;;;;;;;;15.63;57.26;100145.28;5052090;28;19916;-74
2021/10/26 10:59:50;;;;;;;;;;;;;;;15.38;57.88;100150.44;5070349;28;19916;-74
2021/10/26 11:02:24;;;;;;;;;;;;;;;15.12;58.57;100150.28;5069719;28;19917;-74
2021/10/26 11:04:51;;;;;;;;;;;;;;;14.91;59.04;100152.44;5071240;28;19921;-75
2021/10/26 11:07:36;;;;;;;;;;;;;;;14.77;59.79;100155.97;5071036;28;19994;-74
2021/10/26 11:10:02;;;;;;;;;;;;;;;14.71;60.19;100153.66;5069664;28;19921;-75
2021/10/26 11:12:29;;;;;;;;;;;;;;;14.64;60.38;100146.16;5054601;28;19942;-73
2021/10/26 11:14:56;;;;;;;;;;;;;;;14.69;60.63;100147.59;5076221;28;19926;-72
2021/10/26 11:17:40;;;;;;;;;;;;;;;14.86;60.89;100143.91;5075868;28;19999;-74
2021/10/26 11:20:10;;;;;;;;;;;;;;;14.77;60.51;100139.19;5071489;28;19943;-74
2021/10/26 11:23:02;;;;;;;;;;;;;;;14.76;60.74;100140.97;5069739;28;19916;-73
2021/10/26 11:25:28;;;;;;;;;;;;;;;14.77;60.48;100136.53;5061545;28;19923;-75
2021/10/26 11:27:54;;;;;;;;;;;;;;;14.76;60.52;100138.31;5050125;28;19920;-73
2021/10/26 11:30:29;;;;;;;;;;;;;;;14.73;60.72;100138.50;5049155;28;19959;-72
2021/10/26 11:33:12;;;;;;;;;;;;;;;14.75;60.82;100133.97;5049508;28;19935;-72
2021/10/26 11:35:41;;;;;;;;;;;;;;;14.87;61.03;100129.72;5024046;28;19916;-73
2021/10/26 11:38:11;;;;;;;;;;;;;;;14.91;60.64;100120.59;5024039;28;19941;-73
2021/10/26 11:40:36;;;;;;;;;;;;;;;14.95;60.34;100122.13;5048660;28;20377;-73
2021/10/26 11:43:01;;;;;;;;;;;;;;;14.92;60.43;100119.66;5033696;28;19924;-72
2021/10/26 11:45:27;;;;;;;;;;;;;;;14.96;60.65;100117.66;5067297;28;19916;-73
2021/10/26 11:47:52;;;;;;;;;;;;;;;14.93;60.11;100118.69;5068062;28;19936;-73
2021/10/26 11:50:20;;;;;;;;;;;;;;;14.99;60.12;100118.31;5068086;28;19940;-73
2021/10/26 11:52:46;;;;;;;;;;;;;;;15.10;60.32;100124.78;5059517;28;20372;-75
2021/10/26 11:55:11;;;;;;;;;;;;;;;15.14;59.94;100120.97;5051066;28;19922;-73
2021/10/26 11:57:39;;;;;;;;;;;;;;;15.17;60.38;100116.31;5050758;28;20061;-73
2021/10/26 12:00:05;;;;;;;;;;;;;;;15.19;59.72;100118.88;5068758;28;19916;-73
2021/10/26 12:02:32;;;;;;;;;;;;;;;15.21;59.30;100116.97;5069809;28;20019;-74
2021/10/26 12:04:59;;;;;;;;;;;;;;;15.16;59.15;100121.72;5073792;28;20407;-73
2021/10/26 12:07:26;;;;;;;;;;;;;;;15.17;59.17;100118.97;5077525;28;19955;-73
2021/10/26 12:09:54;;;;;;;;;;;;;;;15.23;58.95;100125.69;5062379;28;20937;-74
2021/10/26 12:12:21;;;;;;;;;;;;;;;15.21;59.06;100117.84;5069362;28;20348;-73
2021/10/26 12:14:47;;;;;;;;;;;;;;;15.18;58.92;100128.63;5067928;28;20341;-72
2021/10/26 12:17:12;;;;;;;;;;;;;;;15.10;59.00;100115.00;5068860;28;19921;-72
2021/10/26 12:19:39;;;;;;;;;;;;;;;15.06;58.92;100118.78;5068992;28;20097;-73
2021/10/26 12:22:06;;;;;;;;;;;;;;;15.11;59.21;100116.72;5068314;28;19939;-73
2021/10/26 12:24:32;;;;;;;;;;;;;;;15.15;58.81;100110.25;5069807;28;20295;-74
2021/10/26 12:26:59;;;;;;;;;;;;;;;15.16;59.23;100105.78;5069052;28;19924;-73
2021/10/26 12:29:35;;;;;;;;;;;;;;;15.13;59.03;100103.31;5065233;28;20386;-75
2021/10/26 12:32:02;;;;;;;;;;;;;;;15.00;59.36;100103.25;5061435;28;19932;-74
2021/10/26 12:34:28;;;;;;;;;;;;;;;15.01;59.48;100099.63;5043659;28;19918;-75
2021/10/26 12:37:13;;;;;;;;;;;;;;;15.01;59.04;100099.63;5042073;28;20033;-73
2021/10/26 12:39:42;;;;;;;;;;;;;;;15.07;59.33;100099.25;5040577;28;19920;-75
2021/10/26 12:42:26;;;;;;;;;;;;;;;15.11;58.70;100089.28;5033769;28;20044;-74
2021/10/26 12:44:52;;;;;;;;;;;;;;;15.04;58.26;100094.16;5048225;28;20304;-70
2021/10/26 12:47:17;;;;;;;;;;;;;;;15.05;58.34;100090.53;5048766;28;19917;-74
2021/10/26 12:49:42;;;;;;;;;;;;;;;15.04;57.87;100099.47;5048991;28;20004;-74
2021/10/26 12:52:10;;;;;;;;;;;;;;;15.03;57.74;100101.25;5047697;28;19978;-75
2021/10/26 12:54:35;;;;;;;;;;;;;;;15.03;57.46;100092.44;5030910;28;19925;-73